sensor_id;sensor_type;location;lat;lon;timestamp;temperature;humidity
20568;DHT22;10442;49.932;11.592;2022-08-04T00:00:14;23.70;54.30
20568;DHT22;10442;49.932;11.592;2022-08-04T00:02:56;23.70;54.10
20568;DHT22;10442;49.932;11.592;2022-08-04T00:05:51;23.60;54.10
20568;DHT22;10442;49.932;11.592;2022-08-04T00:11:01;23.50;54.10
20568;DHT22;10442;49.932;11.592;2022-08-04T00:13:31;23.50;53.60
20568;DHT22;10442;49.932;11.592;2022-08-04T00:16:06;23.40;53.80
20568;DHT22;10442;49.932;11.592;2022-08-04T00:18:39;23.40;54.00
20568;DHT22;10442;49.932;11.592;2022-08-04T00:21:11;23.40;54.40
20568;DHT22;10442;49.932;11.592;2022-08-04T00:23:43;23.30;54.50
20568;DHT22;10442;49.932;11.592;2022-08-04T00:26:32;23.30;54.60
20568;DHT22;10442;49.932;11.592;2022-08-04T00:29:00;23.30;54.60
20568;DHT22;10442;49.932;11.592;2022-08-04T00:31:27;23.20;54.70
20568;DHT22;10442;49.932;11.592;2022-08-04T00:34:15;23.30;54.90
20568;DHT22;10442;49.932;11.592;2022-08-04T00:36:44;23.20;54.60
20568;DHT22;10442;49.932;11.592;2022-08-04T00:39:13;23.20;54.80
20568;DHT22;10442;49.932;11.592;2022-08-04T00:44:57;23.10;55.20
20568;DHT22;10442;49.932;11.592;2022-08-04T00:53:18;23.00;55.30
20568;DHT22;10442;49.932;11.592;2022-08-04T00:58:54;23.00;55.70
20568;DHT22;10442;49.932;11.592;2022-08-04T01:02:06;23.00;55.80
20568;DHT22;10442;49.932;11.592;2022-08-04T01:05:04;22.90;55.70
20568;DHT22;10442;49.932;11.592;2022-08-04T01:10:22;22.90;56.00
20568;DHT22;10442;49.932;11.592;2022-08-04T01:16:06;22.80;56.00
20568;DHT22;10442;49.932;11.592;2022-08-04T01:21:30;22.70;56.20
20568;DHT22;10442;49.932;11.592;2022-08-04T01:26:52;22.70;56.40
20568;DHT22;10442;49.932;11.592;2022-08-04T01:29:30;22.60;56.70
20568;DHT22;10442;49.932;11.592;2022-08-04T01:32:26;22.50;56.80
20568;DHT22;10442;49.932;11.592;2022-08-04T01:35:18;22.50;57.10
20568;DHT22;10442;49.932;11.592;2022-08-04T01:40:51;22.40;57.10
20568;DHT22;10442;49.932;11.592;2022-08-04T01:43:20;22.30;57.40
20568;DHT22;10442;49.932;11.592;2022-08-04T01:45:56;22.30;57.30
20568;DHT22;10442;49.932;11.592;2022-08-04T01:48:25;22.30;57.50
20568;DHT22;10442;49.932;11.592;2022-08-04T01:50:56;22.20;57.40
20568;DHT22;10442;49.932;11.592;2022-08-04T01:53:33;22.20;57.60
20568;DHT22;10442;49.932;11.592;2022-08-04T01:56:01;22.10;57.80
20568;DHT22;10442;49.932;11.592;2022-08-04T01:58:31;22.10;57.80
20568;DHT22;10442;49.932;11.592;2022-08-04T02:01:01;22.00;57.90
20568;DHT22;10442;49.932;11.592;2022-08-04T02:03:37;22.00;58.00
20568;DHT22;10442;49.932;11.592;2022-08-04T02:06:40;22.00;58.60
20568;DHT22;10442;49.932;11.592;2022-08-04T02:12:46;21.90;58.10
20568;DHT22;10442;49.932;11.592;2022-08-04T02:20:38;21.80;58.10
20568;DHT22;10442;49.932;11.592;2022-08-04T02:23:08;21.80;58.30
20568;DHT22;10442;49.932;11.592;2022-08-04T02:25:40;21.80;58.20
20568;DHT22;10442;49.932;11.592;2022-08-04T02:31:31;21.70;58.50
20568;DHT22;10442;49.932;11.592;2022-08-04T02:34:07;21.70;58.30
20568;DHT22;10442;49.932;11.592;2022-08-04T02:36:38;21.70;58.70
20568;DHT22;10442;49.932;11.592;2022-08-04T02:39:08;21.70;59.50
20568;DHT22;10442;49.932;11.592;2022-08-04T02:41:37;21.60;58.70
20568;DHT22;10442;49.932;11.592;2022-08-04T02:44:08;21.60;58.60
20568;DHT22;10442;49.932;11.592;2022-08-04T02:46:37;21.60;58.50
20568;DHT22;10442;49.932;11.592;2022-08-04T02:49:07;21.60;58.60
20568;DHT22;10442;49.932;11.592;2022-08-04T02:51:48;21.60;58.70
20568;DHT22;10442;49.932;11.592;2022-08-04T02:54:18;21.50;58.80
20568;DHT22;10442;49.932;11.592;2022-08-04T02:57:01;21.50;58.90
20568;DHT22;10442;49.932;11.592;2022-08-04T03:00:00;21.60;59.40
20568;DHT22;10442;49.932;11.592;2022-08-04T03:02:53;21.50;59.80
20568;DHT22;10442;49.932;11.592;2022-08-04T03:05:25;21.50;59.60
20568;DHT22;10442;49.932;11.592;2022-08-04T03:08:24;21.50;59.70
20568;DHT22;10442;49.932;11.592;2022-08-04T03:16:34;21.50;60.20
20568;DHT22;10442;49.932;11.592;2022-08-04T03:25:13;21.40;60.00
20568;DHT22;10442;49.932;11.592;2022-08-04T03:31:10;21.30;60.00
20568;DHT22;10442;49.932;11.592;2022-08-04T03:48:27;21.30;60.70
20568;DHT22;10442;49.932;11.592;2022-08-04T04:08:22;21.20;60.90
20568;DHT22;10442;49.932;11.592;2022-08-04T04:30:02;21.40;62.40
20568;DHT22;10442;49.932;11.592;2022-08-04T04:32:42;21.40;62.90
20568;DHT22;10442;49.932;11.592;2022-08-04T04:41:04;21.60;62.70
20568;DHT22;10442;49.932;11.592;2022-08-04T04:44:00;21.60;62.80
20568;DHT22;10442;49.932;11.592;2022-08-04T04:46:36;21.70;62.80
20568;DHT22;10442;49.932;11.592;2022-08-04T04:49:39;21.90;62.80
20568;DHT22;10442;49.932;11.592;2022-08-04T04:55:30;22.50;62.60
20568;DHT22;10442;49.932;11.592;2022-08-04T04:58:00;22.90;62.10
20568;DHT22;10442;49.932;11.592;2022-08-04T05:00:53;23.30;61.90
20568;DHT22;10442;49.932;11.592;2022-08-04T05:11:44;25.80;56.90
20568;DHT22;10442;49.932;11.592;2022-08-04T05:14:30;26.50;55.00
20568;DHT22;10442;49.932;11.592;2022-08-04T05:20:00;28.10;52.60
20568;DHT22;10442;49.932;11.592;2022-08-04T05:22:51;28.80;51.90
20568;DHT22;10442;49.932;11.592;2022-08-04T05:25:24;29.50;51.20
20568;DHT22;10442;49.932;11.592;2022-08-04T05:27:56;30.20;49.50
20568;DHT22;10442;49.932;11.592;2022-08-04T05:30:34;30.80;47.80
20568;DHT22;10442;49.932;11.592;2022-08-04T05:33:09;31.40;46.90
20568;DHT22;10442;49.932;11.592;2022-08-04T05:35:43;31.90;45.60
20568;DHT22;10442;49.932;11.592;2022-08-04T05:38:35;32.40;44.30
20568;DHT22;10442;49.932;11.592;2022-08-04T05:41:04;32.90;43.20
20568;DHT22;10442;49.932;11.592;2022-08-04T05:43:35;33.30;42.90
20568;DHT22;10442;49.932;11.592;2022-08-04T05:46:04;33.80;41.80
20568;DHT22;10442;49.932;11.592;2022-08-04T05:48:33;34.10;41.20
20568;DHT22;10442;49.932;11.592;2022-08-04T05:51:02;34.40;40.20
20568;DHT22;10442;49.932;11.592;2022-08-04T05:53:31;34.60;39.40
20568;DHT22;10442;49.932;11.592;2022-08-04T05:56:01;34.80;38.90
20568;DHT22;10442;49.932;11.592;2022-08-04T05:58:30;34.80;38.70
20568;DHT22;10442;49.932;11.592;2022-08-04T06:00:58;34.90;38.20
20568;DHT22;10442;49.932;11.592;2022-08-04T06:03:31;34.90;38.20
20568;DHT22;10442;49.932;11.592;2022-08-04T06:06:02;35.00;37.70
20568;DHT22;10442;49.932;11.592;2022-08-04T06:08:30;35.10;37.50
20568;DHT22;10442;49.932;11.592;2022-08-04T06:11:02;35.30;37.20
20568;DHT22;10442;49.932;11.592;2022-08-04T06:13:39;35.50;37.40
20568;DHT22;10442;49.932;11.592;2022-08-04T06:16:18;35.90;35.80
20568;DHT22;10442;49.932;11.592;2022-08-04T06:19:00;36.30;36.00
20568;DHT22;10442;49.932;11.592;2022-08-04T06:21:50;36.70;35.30
20568;DHT22;10442;49.932;11.592;2022-08-04T06:24:22;37.10;35.00
20568;DHT22;10442;49.932;11.592;2022-08-04T06:26:51;37.60;34.40
20568;DHT22;10442;49.932;11.592;2022-08-04T06:29:20;38.00;33.80
20568;DHT22;10442;49.932;11.592;2022-08-04T06:31:53;38.40;32.80
20568;DHT22;10442;49.932;11.592;2022-08-04T06:34:44;38.80;32.20
20568;DHT22;10442;49.932;11.592;2022-08-04T06:37:13;39.30;31.30
20568;DHT22;10442;49.932;11.592;2022-08-04T06:40:02;39.70;30.00
20568;DHT22;10442;49.932;11.592;2022-08-04T06:42:51;40.10;29.40
20568;DHT22;10442;49.932;11.592;2022-08-04T06:45:20;40.60;28.90
20568;DHT22;10442;49.932;11.592;2022-08-04T06:47:48;40.80;28.50
20568;DHT22;10442;49.932;11.592;2022-08-04T06:50:16;41.10;28.00
20568;DHT22;10442;49.932;11.592;2022-08-04T06:53:05;41.30;27.60
20568;DHT22;10442;49.932;11.592;2022-08-04T06:55:33;41.50;27.20
20568;DHT22;10442;49.932;11.592;2022-08-04T06:58:02;41.60;27.40
20568;DHT22;10442;49.932;11.592;2022-08-04T07:00:30;41.70;27.10
20568;DHT22;10442;49.932;11.592;2022-08-04T07:02:59;41.80;26.70
20568;DHT22;10442;49.932;11.592;2022-08-04T07:05:28;41.90;26.40
20568;DHT22;10442;49.932;11.592;2022-08-04T07:07:58;42.10;26.60
20568;DHT22;10442;49.932;11.592;2022-08-04T07:10:26;42.20;26.10
20568;DHT22;10442;49.932;11.592;2022-08-04T07:12:56;42.30;26.10
20568;DHT22;10442;49.932;11.592;2022-08-04T07:15:25;42.50;26.10
20568;DHT22;10442;49.932;11.592;2022-08-04T07:17:54;42.50;25.60
20568;DHT22;10442;49.932;11.592;2022-08-04T07:20:30;42.50;25.30
20568;DHT22;10442;49.932;11.592;2022-08-04T07:23:05;42.30;25.20
20568;DHT22;10442;49.932;11.592;2022-08-04T07:25:34;42.30;25.20
20568;DHT22;10442;49.932;11.592;2022-08-04T07:28:27;42.20;24.90
20568;DHT22;10442;49.932;11.592;2022-08-04T07:30:56;42.10;25.10
20568;DHT22;10442;49.932;11.592;2022-08-04T07:33:25;42.20;25.20
20568;DHT22;10442;49.932;11.592;2022-08-04T07:35:54;42.20;25.50
20568;DHT22;10442;49.932;11.592;2022-08-04T07:38:41;42.40;25.30
20568;DHT22;10442;49.932;11.592;2022-08-04T07:41:22;42.60;24.90
20568;DHT22;10442;49.932;11.592;2022-08-04T07:44:08;42.80;24.50
20568;DHT22;10442;49.932;11.592;2022-08-04T07:46:36;43.00;25.10
20568;DHT22;10442;49.932;11.592;2022-08-04T07:49:04;43.20;24.50
20568;DHT22;10442;49.932;11.592;2022-08-04T07:51:33;43.40;24.50
20568;DHT22;10442;49.932;11.592;2022-08-04T07:54:04;43.60;24.20
20568;DHT22;10442;49.932;11.592;2022-08-04T07:56:33;43.80;23.80
20568;DHT22;10442;49.932;11.592;2022-08-04T07:59:03;44.10;23.80
20568;DHT22;10442;49.932;11.592;2022-08-04T08:01:31;44.30;23.70
20568;DHT22;10442;49.932;11.592;2022-08-04T08:03:59;44.50;23.70
20568;DHT22;10442;49.932;11.592;2022-08-04T08:06:28;44.70;23.30
20568;DHT22;10442;49.932;11.592;2022-08-04T08:09:00;44.80;23.10
20568;DHT22;10442;49.932;11.592;2022-08-04T08:11:41;44.90;22.90
20568;DHT22;10442;49.932;11.592;2022-08-04T08:14:29;45.10;22.80
20568;DHT22;10442;49.932;11.592;2022-08-04T08:16:58;45.20;22.60
20568;DHT22;10442;49.932;11.592;2022-08-04T08:19:32;45.20;22.50
20568;DHT22;10442;49.932;11.592;2022-08-04T08:22:02;45.20;22.40
20568;DHT22;10442;49.932;11.592;2022-08-04T08:24:34;45.10;22.30
20568;DHT22;10442;49.932;11.592;2022-08-04T08:27:03;45.10;22.90
20568;DHT22;10442;49.932;11.592;2022-08-04T08:29:33;45.00;23.10
20568;DHT22;10442;49.932;11.592;2022-08-04T08:32:02;45.10;23.10
20568;DHT22;10442;49.932;11.592;2022-08-04T08:34:36;45.20;23.10
20568;DHT22;10442;49.932;11.592;2022-08-04T08:37:34;45.40;22.90
20568;DHT22;10442;49.932;11.592;2022-08-04T08:43:29;45.40;22.60
20568;DHT22;10442;49.932;11.592;2022-08-04T08:49:37;45.10;22.00
20568;DHT22;10442;49.932;11.592;2022-08-04T09:12:13;44.20;22.50
20568;DHT22;10442;49.932;11.592;2022-08-04T09:15:07;44.20;22.10
20568;DHT22;10442;49.932;11.592;2022-08-04T09:17:42;44.10;22.20
20568;DHT22;10442;49.932;11.592;2022-08-04T09:20:20;44.00;22.30
20568;DHT22;10442;49.932;11.592;2022-08-04T09:26:10;43.90;22.30
20568;DHT22;10442;49.932;11.592;2022-08-04T09:28:53;43.80;22.20
20568;DHT22;10442;49.932;11.592;2022-08-04T09:31:53;43.80;22.30
20568;DHT22;10442;49.932;11.592;2022-08-04T09:35:02;43.90;22.40
20568;DHT22;10442;49.932;11.592;2022-08-04T09:37:47;43.90;22.40
20568;DHT22;10442;49.932;11.592;2022-08-04T09:40:37;43.90;22.20
20568;DHT22;10442;49.932;11.592;2022-08-04T09:46:52;43.70;22.40
20568;DHT22;10442;49.932;11.592;2022-08-04T09:49:23;43.60;22.40
20568;DHT22;10442;49.932;11.592;2022-08-04T09:52:48;43.50;21.80
20568;DHT22;10442;49.932;11.592;2022-08-04T09:55:25;43.40;22.10
20568;DHT22;10442;49.932;11.592;2022-08-04T09:58:21;43.20;22.00
20568;DHT22;10442;49.932;11.592;2022-08-04T10:00:59;43.00;22.20
20568;DHT22;10442;49.932;11.592;2022-08-04T10:03:33;42.70;22.20
20568;DHT22;10442;49.932;11.592;2022-08-04T10:12:04;41.70;22.50
20568;DHT22;10442;49.932;11.592;2022-08-04T10:14:52;41.30;22.70
20568;DHT22;10442;49.932;11.592;2022-08-04T10:28:43;39.60;24.40
20568;DHT22;10442;49.932;11.592;2022-08-04T10:31:19;39.50;24.70
20568;DHT22;10442;49.932;11.592;2022-08-04T10:33:53;39.40;24.80
20568;DHT22;10442;49.932;11.592;2022-08-04T10:36:24;39.40;24.40
20568;DHT22;10442;49.932;11.592;2022-08-04T10:39:04;39.30;24.50
20568;DHT22;10442;49.932;11.592;2022-08-04T10:41:49;39.30;24.60
20568;DHT22;10442;49.932;11.592;2022-08-04T10:44:51;39.30;24.50
20568;DHT22;10442;49.932;11.592;2022-08-04T10:47:29;39.30;24.50
20568;DHT22;10442;49.932;11.592;2022-08-04T10:50:00;39.30;24.60
20568;DHT22;10442;49.932;11.592;2022-08-04T10:52:45;39.20;24.30
20568;DHT22;10442;49.932;11.592;2022-08-04T10:55:19;39.20;24.60
20568;DHT22;10442;49.932;11.592;2022-08-04T11:00:22;39.10;24.70
20568;DHT22;10442;49.932;11.592;2022-08-04T11:05:41;39.00;24.50
20568;DHT22;10442;49.932;11.592;2022-08-04T11:08:26;38.90;24.90
20568;DHT22;10442;49.932;11.592;2022-08-04T11:11:13;38.90;24.90
20568;DHT22;10442;49.932;11.592;2022-08-04T11:13:46;38.90;24.70
20568;DHT22;10442;49.932;11.592;2022-08-04T11:16:20;38.90;24.80
20568;DHT22;10442;49.932;11.592;2022-08-04T11:25:00;38.60;25.60
20568;DHT22;10442;49.932;11.592;2022-08-04T11:33:33;38.60;25.00
20568;DHT22;10442;49.932;11.592;2022-08-04T11:42:30;38.70;25.10
20568;DHT22;10442;49.932;11.592;2022-08-04T11:45:02;38.70;25.00
20568;DHT22;10442;49.932;11.592;2022-08-04T11:47:59;38.80;25.10
20568;DHT22;10442;49.932;11.592;2022-08-04T11:50:46;38.80;25.10
20568;DHT22;10442;49.932;11.592;2022-08-04T11:53:24;38.90;25.00
20568;DHT22;10442;49.932;11.592;2022-08-04T11:56:06;38.90;24.90
20568;DHT22;10442;49.932;11.592;2022-08-04T11:58:39;39.00;25.00
20568;DHT22;10442;49.932;11.592;2022-08-04T12:01:16;39.00;24.50
20568;DHT22;10442;49.932;11.592;2022-08-04T12:04:10;39.00;24.40
20568;DHT22;10442;49.932;11.592;2022-08-04T12:06:54;38.90;24.30
20568;DHT22;10442;49.932;11.592;2022-08-04T12:16:09;39.00;24.70
20568;DHT22;10442;49.932;11.592;2022-08-04T12:18:55;39.00;24.60
20568;DHT22;10442;49.932;11.592;2022-08-04T12:24:15;38.90;24.20
20568;DHT22;10442;49.932;11.592;2022-08-04T12:26:51;38.80;24.40
20568;DHT22;10442;49.932;11.592;2022-08-04T12:29:21;38.90;25.00
20568;DHT22;10442;49.932;11.592;2022-08-04T12:32:16;38.80;24.30
20568;DHT22;10442;49.932;11.592;2022-08-04T12:34:53;38.80;24.40
20568;DHT22;10442;49.932;11.592;2022-08-04T12:40:25;38.80;24.40
20568;DHT22;10442;49.932;11.592;2022-08-04T12:43:05;38.80;24.80
20568;DHT22;10442;49.932;11.592;2022-08-04T12:45:35;38.70;24.30
20568;DHT22;10442;49.932;11.592;2022-08-04T12:48:08;38.70;24.40
20568;DHT22;10442;49.932;11.592;2022-08-04T12:50:37;38.60;24.20
20568;DHT22;10442;49.932;11.592;2022-08-04T12:53:12;38.50;24.40
20568;DHT22;10442;49.932;11.592;2022-08-04T12:55:59;38.40;24.50
20568;DHT22;10442;49.932;11.592;2022-08-04T12:58:32;38.40;24.80
20568;DHT22;10442;49.932;11.592;2022-08-04T13:01:12;38.40;24.90
20568;DHT22;10442;49.932;11.592;2022-08-04T13:04:13;38.40;25.00
20568;DHT22;10442;49.932;11.592;2022-08-04T13:06:42;38.40;24.80
20568;DHT22;10442;49.932;11.592;2022-08-04T13:09:15;38.50;24.80
20568;DHT22;10442;49.932;11.592;2022-08-04T13:11:57;38.60;24.80
20568;DHT22;10442;49.932;11.592;2022-08-04T13:14:32;38.60;24.60
20568;DHT22;10442;49.932;11.592;2022-08-04T13:17:00;38.70;24.60
20568;DHT22;10442;49.932;11.592;2022-08-04T13:19:29;38.80;24.50
20568;DHT22;10442;49.932;11.592;2022-08-04T13:21:57;38.90;24.30
20568;DHT22;10442;49.932;11.592;2022-08-04T13:24:31;38.90;24.30
20568;DHT22;10442;49.932;11.592;2022-08-04T13:27:21;39.00;24.10
20568;DHT22;10442;49.932;11.592;2022-08-04T13:29:51;39.10;24.00
20568;DHT22;10442;49.932;11.592;2022-08-04T13:32:29;39.10;23.90
20568;DHT22;10442;49.932;11.592;2022-08-04T13:34:59;39.20;24.10
20568;DHT22;10442;49.932;11.592;2022-08-04T13:37:34;39.20;23.80
20568;DHT22;10442;49.932;11.592;2022-08-04T13:40:08;39.20;24.10
20568;DHT22;10442;49.932;11.592;2022-08-04T13:42:39;39.20;24.30
20568;DHT22;10442;49.932;11.592;2022-08-04T13:45:08;39.10;23.60
20568;DHT22;10442;49.932;11.592;2022-08-04T13:47:39;39.10;23.80
20568;DHT22;10442;49.932;11.592;2022-08-04T13:50:21;39.10;24.20
20568;DHT22;10442;49.932;11.592;2022-08-04T13:52:52;39.10;24.00
20568;DHT22;10442;49.932;11.592;2022-08-04T13:55:29;39.10;23.80
20568;DHT22;10442;49.932;11.592;2022-08-04T13:58:03;39.10;23.40
20568;DHT22;10442;49.932;11.592;2022-08-04T14:03:09;39.20;23.70
20568;DHT22;10442;49.932;11.592;2022-08-04T14:08:57;39.20;23.10
20568;DHT22;10442;49.932;11.592;2022-08-04T14:14:35;39.20;22.90
20568;DHT22;10442;49.932;11.592;2022-08-04T14:17:09;39.20;23.10
20568;DHT22;10442;49.932;11.592;2022-08-04T14:19:55;39.20;23.20
20568;DHT22;10442;49.932;11.592;2022-08-04T14:27:49;39.10;23.40
20568;DHT22;10442;49.932;11.592;2022-08-04T14:35:25;39.10;23.10
20568;DHT22;10442;49.932;11.592;2022-08-04T14:38:13;39.10;23.00
20568;DHT22;10442;49.932;11.592;2022-08-04T14:40:41;39.10;23.10
20568;DHT22;10442;49.932;11.592;2022-08-04T14:43:10;39.10;23.10
20568;DHT22;10442;49.932;11.592;2022-08-04T14:45:43;39.10;23.00
20568;DHT22;10442;49.932;11.592;2022-08-04T14:48:21;39.10;23.00
20568;DHT22;10442;49.932;11.592;2022-08-04T14:50:49;39.10;23.00
20568;DHT22;10442;49.932;11.592;2022-08-04T14:53:22;39.10;23.00
20568;DHT22;10442;49.932;11.592;2022-08-04T14:55:57;39.10;23.10
20568;DHT22;10442;49.932;11.592;2022-08-04T14:58:30;39.00;23.00
20568;DHT22;10442;49.932;11.592;2022-08-04T15:01:08;39.00;23.10
20568;DHT22;10442;49.932;11.592;2022-08-04T15:03:44;38.90;22.90
20568;DHT22;10442;49.932;11.592;2022-08-04T15:06:23;38.90;22.90
20568;DHT22;10442;49.932;11.592;2022-08-04T15:08:54;38.90;22.80
20568;DHT22;10442;49.932;11.592;2022-08-04T15:11:23;38.90;22.90
20568;DHT22;10442;49.932;11.592;2022-08-04T15:13:53;38.80;23.00
20568;DHT22;10442;49.932;11.592;2022-08-04T15:16:23;38.80;23.20
20568;DHT22;10442;49.932;11.592;2022-08-04T15:18:52;38.80;23.00
20568;DHT22;10442;49.932;11.592;2022-08-04T15:21:22;38.80;23.00
20568;DHT22;10442;49.932;11.592;2022-08-04T15:23:50;38.70;22.90
20568;DHT22;10442;49.932;11.592;2022-08-04T15:26:22;38.70;23.10
20568;DHT22;10442;49.932;11.592;2022-08-04T15:28:55;38.70;23.10
20568;DHT22;10442;49.932;11.592;2022-08-04T15:31:25;38.60;23.00
20568;DHT22;10442;49.932;11.592;2022-08-04T15:34:13;38.60;23.40
20568;DHT22;10442;49.932;11.592;2022-08-04T15:36:53;38.60;23.40
20568;DHT22;10442;49.932;11.592;2022-08-04T15:39:43;38.50;23.10
20568;DHT22;10442;49.932;11.592;2022-08-04T15:42:16;38.50;23.60
20568;DHT22;10442;49.932;11.592;2022-08-04T15:47:41;38.50;23.10
20568;DHT22;10442;49.932;11.592;2022-08-04T15:50:19;38.50;23.40
20568;DHT22;10442;49.932;11.592;2022-08-04T15:58:05;38.30;23.70
20568;DHT22;10442;49.932;11.592;2022-08-04T16:08:58;38.20;23.40
20568;DHT22;10442;49.932;11.592;2022-08-04T16:21:54;38.10;23.90
20568;DHT22;10442;49.932;11.592;2022-08-04T16:26:58;38.10;23.60
20568;DHT22;10442;49.932;11.592;2022-08-04T16:34:34;38.00;23.80
20568;DHT22;10442;49.932;11.592;2022-08-04T16:37:18;37.90;23.80
20568;DHT22;10442;49.932;11.592;2022-08-04T16:39:46;38.00;23.70
20568;DHT22;10442;49.932;11.592;2022-08-04T16:50:19;37.80;23.90
20568;DHT22;10442;49.932;11.592;2022-08-04T16:52:52;37.70;23.80
20568;DHT22;10442;49.932;11.592;2022-08-04T16:55:22;37.70;23.90
20568;DHT22;10442;49.932;11.592;2022-08-04T16:57:55;37.70;24.10
20568;DHT22;10442;49.932;11.592;2022-08-04T17:00:33;37.60;24.00
20568;DHT22;10442;49.932;11.592;2022-08-04T17:03:02;37.60;24.20
20568;DHT22;10442;49.932;11.592;2022-08-04T17:05:31;37.50;24.20
20568;DHT22;10442;49.932;11.592;2022-08-04T17:08:07;37.40;24.10
20568;DHT22;10442;49.932;11.592;2022-08-04T17:10:55;37.40;24.10
20568;DHT22;10442;49.932;11.592;2022-08-04T17:13:30;37.30;24.30
20568;DHT22;10442;49.932;11.592;2022-08-04T17:16:17;37.30;24.40
20568;DHT22;10442;49.932;11.592;2022-08-04T17:18:49;37.20;24.50
20568;DHT22;10442;49.932;11.592;2022-08-04T17:21:22;37.10;24.70
20568;DHT22;10442;49.932;11.592;2022-08-04T17:23:53;37.00;24.80
20568;DHT22;10442;49.932;11.592;2022-08-04T17:26:41;36.90;25.10
20568;DHT22;10442;49.932;11.592;2022-08-04T17:29:11;36.80;25.10
20568;DHT22;10442;49.932;11.592;2022-08-04T17:31:46;36.70;25.10
20568;DHT22;10442;49.932;11.592;2022-08-04T17:34:15;36.70;25.00
20568;DHT22;10442;49.932;11.592;2022-08-04T17:36:46;36.60;25.10
20568;DHT22;10442;49.932;11.592;2022-08-04T17:39:17;36.50;25.20
20568;DHT22;10442;49.932;11.592;2022-08-04T17:41:48;36.50;25.30
20568;DHT22;10442;49.932;11.592;2022-08-04T17:44:34;36.40;25.30
20568;DHT22;10442;49.932;11.592;2022-08-04T17:47:17;36.30;25.30
20568;DHT22;10442;49.932;11.592;2022-08-04T17:49:45;36.30;25.40
20568;DHT22;10442;49.932;11.592;2022-08-04T17:52:20;36.20;25.40
20568;DHT22;10442;49.932;11.592;2022-08-04T17:55:07;36.10;25.60
20568;DHT22;10442;49.932;11.592;2022-08-04T17:57:47;36.00;25.60
20568;DHT22;10442;49.932;11.592;2022-08-04T18:00:19;36.00;25.80
20568;DHT22;10442;49.932;11.592;2022-08-04T18:02:53;35.90;26.00
20568;DHT22;10442;49.932;11.592;2022-08-04T18:05:27;35.90;26.20
20568;DHT22;10442;49.932;11.592;2022-08-04T18:08:16;35.80;26.40
20568;DHT22;10442;49.932;11.592;2022-08-04T18:11:04;35.70;27.20
20568;DHT22;10442;49.932;11.592;2022-08-04T18:13:31;35.60;27.30
20568;DHT22;10442;49.932;11.592;2022-08-04T18:16:09;35.60;27.20
20568;DHT22;10442;49.932;11.592;2022-08-04T18:19:09;35.50;27.50
20568;DHT22;10442;49.932;11.592;2022-08-04T18:21:37;35.40;27.60
20568;DHT22;10442;49.932;11.592;2022-08-04T18:24:25;35.30;27.80
20568;DHT22;10442;49.932;11.592;2022-08-04T18:27:14;35.20;28.50
20568;DHT22;10442;49.932;11.592;2022-08-04T18:29:42;35.10;28.70
20568;DHT22;10442;49.932;11.592;2022-08-04T18:32:29;35.10;29.10
20568;DHT22;10442;49.932;11.592;2022-08-04T18:35:00;34.90;29.30
20568;DHT22;10442;49.932;11.592;2022-08-04T18:37:32;34.80;30.00
20568;DHT22;10442;49.932;11.592;2022-08-04T18:40:21;34.70;30.80
20568;DHT22;10442;49.932;11.592;2022-08-04T18:43:02;34.60;31.20
20568;DHT22;10442;49.932;11.592;2022-08-04T18:45:30;34.40;31.80
20568;DHT22;10442;49.932;11.592;2022-08-04T18:48:05;34.30;32.00
20568;DHT22;10442;49.932;11.592;2022-08-04T18:50:52;34.10;32.10
20568;DHT22;10442;49.932;11.592;2022-08-04T18:53:38;33.90;31.80
20568;DHT22;10442;49.932;11.592;2022-08-04T18:56:20;33.80;32.40
20568;DHT22;10442;49.932;11.592;2022-08-04T18:59:02;33.60;32.60
20568;DHT22;10442;49.932;11.592;2022-08-04T19:01:36;33.50;32.80
20568;DHT22;10442;49.932;11.592;2022-08-04T19:04:25;33.30;32.90
20568;DHT22;10442;49.932;11.592;2022-08-04T19:07:12;33.20;33.80
20568;DHT22;10442;49.932;11.592;2022-08-04T19:10:00;33.10;34.50
20568;DHT22;10442;49.932;11.592;2022-08-04T19:12:28;32.90;34.40
20568;DHT22;10442;49.932;11.592;2022-08-04T19:14:57;32.70;34.70
20568;DHT22;10442;49.932;11.592;2022-08-04T19:17:38;32.60;35.00
20568;DHT22;10442;49.932;11.592;2022-08-04T19:20:24;32.50;35.30
20568;DHT22;10442;49.932;11.592;2022-08-04T19:22:54;32.30;35.30
20568;DHT22;10442;49.932;11.592;2022-08-04T19:25:45;32.10;35.10
20568;DHT22;10442;49.932;11.592;2022-08-04T19:28:33;32.00;35.40
20568;DHT22;10442;49.932;11.592;2022-08-04T19:31:07;31.80;35.20
20568;DHT22;10442;49.932;11.592;2022-08-04T19:33:36;31.70;35.40
20568;DHT22;10442;49.932;11.592;2022-08-04T19:36:27;31.60;35.70
20568;DHT22;10442;49.932;11.592;2022-08-04T19:38:59;31.50;35.90
20568;DHT22;10442;49.932;11.592;2022-08-04T19:41:27;31.40;36.00
20568;DHT22;10442;49.932;11.592;2022-08-04T19:44:22;31.30;36.30
20568;DHT22;10442;49.932;11.592;2022-08-04T19:46:50;31.20;36.90
20568;DHT22;10442;49.932;11.592;2022-08-04T19:49:19;31.10;37.20
20568;DHT22;10442;49.932;11.592;2022-08-04T19:52:07;31.00;37.00
20568;DHT22;10442;49.932;11.592;2022-08-04T19:54:35;30.80;37.20
20568;DHT22;10442;49.932;11.592;2022-08-04T19:57:07;30.80;37.70
20568;DHT22;10442;49.932;11.592;2022-08-04T19:59:38;30.70;38.40
20568;DHT22;10442;49.932;11.592;2022-08-04T20:02:14;30.60;38.60
20568;DHT22;10442;49.932;11.592;2022-08-04T20:04:42;30.50;38.80
20568;DHT22;10442;49.932;11.592;2022-08-04T20:07:09;30.40;39.40
20568;DHT22;10442;49.932;11.592;2022-08-04T20:09:41;30.30;39.40
20568;DHT22;10442;49.932;11.592;2022-08-04T20:12:20;30.20;39.50
20568;DHT22;10442;49.932;11.592;2022-08-04T20:14:48;30.10;39.70
20568;DHT22;10442;49.932;11.592;2022-08-04T20:17:15;30.00;39.70
20568;DHT22;10442;49.932;11.592;2022-08-04T20:19:44;29.90;40.10
20568;DHT22;10442;49.932;11.592;2022-08-04T20:22:18;29.80;40.30
20568;DHT22;10442;49.932;11.592;2022-08-04T20:25:08;29.70;40.50
20568;DHT22;10442;49.932;11.592;2022-08-04T20:27:56;29.60;40.80
20568;DHT22;10442;49.932;11.592;2022-08-04T20:30:30;29.50;40.90
20568;DHT22;10442;49.932;11.592;2022-08-04T20:32:59;29.40;41.10
20568;DHT22;10442;49.932;11.592;2022-08-04T20:35:33;29.40;40.80
20568;DHT22;10442;49.932;11.592;2022-08-04T20:38:22;29.30;40.90
20568;DHT22;10442;49.932;11.592;2022-08-04T20:41:01;29.20;41.30
20568;DHT22;10442;49.932;11.592;2022-08-04T20:43:28;29.10;41.60
20568;DHT22;10442;49.932;11.592;2022-08-04T20:45:57;29.00;42.10
20568;DHT22;10442;49.932;11.592;2022-08-04T20:51:07;28.80;42.50